Time;durP1;ratioP1;P1;durP2;ratioP2;P2;SDS_P1;SDS_P2;PMS_P1;PMS_P2;Temp;Humidity;BMP_temperature;BMP_pressure;BME280_temperature;BME280_humidity;BME280_pressure;Samples;Min_cycle;Max_cycle;Signal;HPM_P1;HPM_P2
2023/11/19 00:01:53;;;;;;;1.20;1.10;;;;;;;4.73;100.00;98129.34;6095641;19;19998;-76
2023/11/19 00:03:54;;;;;;;1.20;1.00;;;;;;;4.74;100.00;98123.50;6099693;19;20095;-76
2023/11/19 00:05:54;;;;;;;0.98;0.88;;;;;;;4.78;100.00;98129.06;6099606;19;20413;-76
2023/11/19 00:07:54;;;;;;;2.40;0.80;;;;;;;4.78;100.00;98120.84;6098815;19;20481;-76
2023/11/19 00:09:55;;;;;;;0.70;0.70;;;;;;;4.85;100.00;98125.75;6102094;19;20323;-76
2023/11/19 00:11:55;;;;;;;0.60;0.60;;;;;;;4.87;100.00;98117.97;6100685;19;20029;-76
2023/11/19 00:13:55;;;;;;;1.00;0.77;;;;;;;4.85;100.00;98120.25;6100426;19;20014;-76
2023/11/19 00:15:56;;;;;;;0.70;0.70;;;;;;;4.83;100.00;98115.13;6101239;19;20065;-76
2023/11/19 00:17:57;;;;;;;2.83;0.70;;;;;;;4.80;100.00;98096.66;6098379;19;20002;-76
2023/11/19 00:19:57;;;;;;;0.68;0.68;;;;;;;4.83;100.00;98084.97;6098668;19;20018;-76
2023/11/19 00:22:02;;;;;;;1.20;0.80;;;;;;;4.94;100.00;98086.06;6099150;19;20007;-76
2023/11/19 00:24:04;;;;;;;0.88;0.70;;;;;;;4.95;100.00;98076.69;6100080;19;20299;-76
2023/11/19 00:26:05;;;;;;;0.95;0.70;;;;;;;4.93;100.00;98080.94;6099199;19;20017;-76
2023/11/19 00:28:06;;;;;;;2.77;1.23;;;;;;;4.95;100.00;98075.88;6098854;19;20011;-76
2023/11/19 00:30:08;;;;;;;1.52;1.30;;;;;;;4.93;100.00;98078.19;6099664;19;20009;-76
2023/11/19 00:32:08;;;;;;;0.70;0.70;;;;;;;4.89;100.00;98067.13;6099867;19;20025;-76
2023/11/19 00:34:08;;;;;;;0.95;0.70;;;;;;;4.87;100.00;98066.66;6099279;19;20319;-76
2023/11/19 00:36:09;;;;;;;0.73;0.70;;;;;;;4.85;100.00;98051.72;6098940;19;20005;-76
2023/11/19 00:38:09;;;;;;;0.77;0.60;;;;;;;4.84;100.00;98042.72;6098812;19;20010;-76
2023/11/19 00:40:10;;;;;;;0.60;0.60;;;;;;;4.84;100.00;98053.66;6097562;19;20340;-76
2023/11/19 00:42:10;;;;;;;0.50;0.50;;;;;;;4.83;100.00;98056.78;6099794;19;20446;-76
2023/11/19 00:44:11;;;;;;;0.60;0.60;;;;;;;4.80;100.00;98050.06;6099119;19;20350;-76
2023/11/19 00:46:11;;;;;;;0.70;0.70;;;;;;;4.80;100.00;98058.28;6100931;19;20534;-76
2023/11/19 00:48:12;;;;;;;1.23;0.80;;;;;;;4.81;100.00;98053.59;6096905;19;20026;-76
2023/11/19 00:50:13;;;;;;;0.65;0.60;;;;;;;4.83;100.00;98045.81;6098497;19;20015;-76
2023/11/19 00:52:13;;;;;;;1.08;0.80;;;;;;;4.84;100.00;98052.88;6099698;19;20002;-76
2023/11/19 00:54:13;;;;;;;1.70;0.70;;;;;;;4.82;100.00;98038.72;6100008;19;20010;-76
2023/11/19 00:56:14;;;;;;;1.35;0.65;;;;;;;4.82;100.00;98034.03;6098451;19;20031;-76
2023/11/19 00:58:14;;;;;;;0.65;0.65;;;;;;;4.83;100.00;98038.38;6097570;19;20030;-76
2023/11/19 01:00:18;;;;;;;1.77;0.70;;;;;;;4.83;100.00;98035.63;6098007;19;20409;-76
2023/11/19 01:02:18;;;;;;;2.03;0.88;;;;;;;4.87;100.00;98019.28;6099642;19;20010;-76
2023/11/19 01:04:18;;;;;;;0.80;0.75;;;;;;;4.86;100.00;98021.22;6098234;19;20074;-76
2023/11/19 01:06:31;;;;;;;1.02;0.75;;;;;;;4.88;100.00;98020.88;6098751;19;20117;-76
2023/11/19 01:08:32;;;;;;;;;;;;;;;4.89;100.00;98019.75;6101225;19;20425;-77
2023/11/19 01:10:32;;;;;;;0.65;0.65;;;;;;;4.87;100.00;98024.75;6098856;19;20350;-76
2023/11/19 01:12:32;;;;;;;0.70;0.70;;;;;;;4.87;100.00;98025.53;6100748;19;20317;-76
2023/11/19 01:14:33;;;;;;;0.90;0.70;;;;;;;4.85;100.00;98022.38;6099543;19;20021;-77
2023/11/19 01:16:33;;;;;;;0.63;0.60;;;;;;;4.87;100.00;98019.28;6099240;19;20503;-76
2023/11/19 01:18:33;;;;;;;0.55;0.55;;;;;;;4.86;100.00;97999.28;6100468;19;20006;-76
2023/11/19 01:20:34;;;;;;;0.50;0.50;;;;;;;4.93;100.00;97994.00;6100466;19;20378;-76
2023/11/19 01:22:35;;;;;;;1.55;0.70;;;;;;;4.96;100.00;97989.75;6100429;19;20020;-77
2023/11/19 01:24:35;;;;;;;0.50;0.50;;;;;;;5.06;100.00;97987.28;6097271;19;20034;-77
2023/11/19 01:26:35;;;;;;;0.52;0.52;;;;;;;5.16;100.00;98001.63;6099195;19;20006;-77
2023/11/19 01:28:36;;;;;;;0.50;0.50;;;;;;;5.22;100.00;98001.00;6099385;19;20021;-76
2023/11/19 01:30:37;;;;;;;0.68;0.50;;;;;;;5.27;100.00;97988.97;6097917;19;20463;-76
2023/11/19 01:32:37;;;;;;;1.40;0.60;;;;;;;5.26;100.00;97990.13;6100264;19;20030;-76
2023/11/19 01:34:37;;;;;;;0.43;0.43;;;;;;;5.27;100.00;97987.00;6098206;19;20317;-76
2023/11/19 01:36:39;;;;;;;0.50;0.50;;;;;;;5.35;100.00;97983.28;6098874;19;20037;-77
2023/11/19 01:38:39;;;;;;;0.65;0.43;;;;;;;5.39;100.00;97974.38;6101762;19;20347;-76
2023/11/19 01:40:39;;;;;;;0.50;0.50;;;;;;;5.36;100.00;97968.41;6105606;19;20007;-76
2023/11/19 01:42:40;;;;;;;0.40;0.40;;;;;;;5.41;100.00;97961.09;6102174;19;20007;-76
2023/11/19 01:44:41;;;;;;;0.40;0.40;;;;;;;5.48;100.00;97955.75;6105790;19;20033;-76
2023/11/19 01:46:47;;;;;;;0.40;0.40;;;;;;;5.59;100.00;97956.78;6103546;19;20014;-76
2023/11/19 01:48:47;;;;;;;0.50;0.50;;;;;;;5.67;100.00;97955.00;6104796;19;20344;-76
2023/11/19 01:50:47;;;;;;;0.50;0.50;;;;;;;5.72;100.00;97941.00;6104529;19;20003;-76
2023/11/19 01:52:48;;;;;;;0.40;0.40;;;;;;;5.77;100.00;97930.53;6104427;19;20458;-76
2023/11/19 01:54:50;;;;;;;0.40;0.40;;;;;;;5.78;100.00;97934.06;6104808;19;20010;-77
2023/11/19 01:56:52;;;;;;;0.40;0.40;;;;;;;5.78;100.00;97923.88;6101968;19;20006;-76
2023/11/19 01:58:55;;;;;;;0.40;0.40;;;;;;;5.84;100.00;97913.41;6104086;19;20979;-76
2023/11/19 02:00:57;;;;;;;0.45;0.45;;;;;;;5.83;100.00;97917.31;6103569;19;20030;-77
2023/11/19 02:02:57;;;;;;;0.40;0.40;;;;;;;5.84;100.00;97913.41;6101821;19;20821;-77
2023/11/19 02:04:58;;;;;;;0.40;0.40;;;;;;;5.85;100.00;97899.31;6104096;19;20011;-76
2023/11/19 02:06:58;;;;;;;0.40;0.40;;;;;;;5.89;100.00;97893.91;6102394;19;19999;-76
2023/11/19 02:08:59;;;;;;;0.63;0.50;;;;;;;5.97;100.00;97884.69;6102353;19;20005;-77
2023/11/19 02:10:59;;;;;;;0.40;0.40;;;;;;;6.08;100.00;97884.91;6101269;19;20407;-76
2023/11/19 02:13:01;;;;;;;0.40;0.40;;;;;;;6.10;100.00;97894.38;6104334;19;20010;-76
2023/11/19 02:15:03;;;;;;;0.50;0.50;;;;;;;6.18;100.00;97900.78;6104238;19;19995;-77
2023/11/19 02:17:04;;;;;;;0.50;0.50;;;;;;;6.23;100.00;97891.47;6099699;19;20003;-77
2023/11/19 02:19:06;;;;;;;0.50;0.50;;;;;;;6.23;100.00;97891.47;6103993;19;20356;-77
2023/11/19 02:21:06;;;;;;;0.40;0.40;;;;;;;6.25;100.00;97881.69;6103864;19;19999;-76
2023/11/19 02:23:06;;;;;;;0.40;0.40;;;;;;;6.26;100.00;97872.28;6104336;19;20860;-77
2023/11/19 02:25:12;;;;;;;0.45;0.40;;;;;;;6.40;100.00;97852.53;6102912;19;20035;-76
2023/11/19 02:27:33;;;;;;;0.40;0.40;;;;;;;6.38;100.00;97850.16;6093259;19;20006;-77
2023/11/19 02:29:34;;;;;;;0.40;0.40;;;;;;;6.47;100.00;97860.91;6100270;19;20018;-76
2023/11/19 02:31:35;;;;;;;0.40;0.40;;;;;;;6.40;100.00;97853.34;6103537;19;20007;-76
2023/11/19 02:33:37;;;;;;;0.40;0.40;;;;;;;6.46;100.00;97851.88;6103564;19;20009;-77
2023/11/19 02:35:37;;;;;;;0.40;0.40;;;;;;;6.50;100.00;97860.19;6103515;19;20011;-76
2023/11/19 02:37:38;;;;;;;0.40;0.40;;;;;;;6.57;100.00;97865.00;6100377;19;20003;-76
2023/11/19 02:39:39;;;;;;;0.40;0.40;;;;;;;6.51;100.00;97863.72;6101407;19;20010;-76
2023/11/19 02:41:39;;;;;;;0.40;0.40;;;;;;;6.52;100.00;97871.59;6101461;19;20007;-76
2023/11/19 02:43:39;;;;;;;1.55;0.45;;;;;;;6.54;100.00;97868.47;6102661;19;20014;-76
2023/11/19 02:45:40;;;;;;;0.68;0.47;;;;;;;6.55;100.00;97879.13;6102368;19;20007;-76
2023/11/19 02:47:42;;;;;;;0.35;0.35;;;;;;;6.54;100.00;97877.53;6099090;19;20006;-76
2023/11/19 02:49:44;;;;;;;0.40;0.40;;;;;;;6.54;100.00;97863.78;6101808;19;20007;-76
2023/11/19 02:51:44;;;;;;;0.40;0.40;;;;;;;6.55;100.00;97859.88;6103203;19;20362;-76
2023/11/19 02:53:48;;;;;;;0.50;0.50;;;;;;;6.63;100.00;97850.59;6101855;19;20002;-76
2023/11/19 02:55:49;;;;;;;0.40;0.40;;;;;;;6.65;100.00;97848.25;6102118;19;20502;-76
2023/11/19 02:57:53;;;;;;;0.40;0.40;;;;;;;6.60;100.00;97831.28;6097793;19;20383;-76
2023/11/19 02:59:55;;;;;;;0.57;0.40;;;;;;;6.57;100.00;97837.53;6102700;19;20255;-76
2023/11/19 03:01:57;;;;;;;0.40;0.40;;;;;;;6.56;100.00;97838.69;6102069;19;20329;-76
2023/11/19 03:03:58;;;;;;;0.40;0.40;;;;;;;6.56;100.00;97839.47;6103163;19;20730;-76
2023/11/19 03:05:58;;;;;;;0.40;0.40;;;;;;;6.58;100.00;97822.63;6099775;19;20074;-76
2023/11/19 03:07:58;;;;;;;0.50;0.50;;;;;;;6.54;100.00;97830.81;6097275;19;20003;-76
2023/11/19 03:09:59;;;;;;;0.52;0.45;;;;;;;6.52;100.00;97841.34;6102744;19;20090;-76
2023/11/19 03:11:59;;;;;;;0.38;0.38;;;;;;;6.60;100.00;97845.03;6102190;19;20031;-76
2023/11/19 03:13:59;;;;;;;0.40;0.40;;;;;;;6.60;100.00;97836.78;6099490;19;20002;-76
2023/11/19 03:16:00;;;;;;;0.40;0.40;;;;;;;6.59;100.00;97832.44;6102951;19;20018;-76
2023/11/19 03:18:00;;;;;;;1.50;0.40;;;;;;;6.61;100.00;97836.41;6099925;19;20017;-76
2023/11/19 03:20:01;;;;;;;0.40;0.40;;;;;;;6.71;100.00;97832.25;6101594;19;20011;-76
2023/11/19 03:22:02;;;;;;;0.50;0.50;;;;;;;6.78;100.00;97820.56;6100486;19;19998;-76
2023/11/19 03:24:03;;;;;;;0.40;0.40;;;;;;;6.70;100.00;97825.97;6102165;19;20002;-76
2023/11/19 03:26:05;;;;;;;0.40;0.40;;;;;;;6.71;100.00;97818.53;6099850;19;20084;-76
2023/11/19 03:28:06;;;;;;;0.45;0.45;;;;;;;6.65;100.00;97830.97;6095467;19;20009;-76
2023/11/19 03:30:07;;;;;;;0.40;0.40;;;;;;;6.72;100.00;97809.09;6094393;19;20010;-76
2023/11/19 03:32:07;;;;;;;0.40;0.40;;;;;;;6.65;100.00;97814.50;6094055;19;20319;-76
2023/11/19 03:34:08;;;;;;;0.50;0.50;;;;;;;6.60;100.00;97814.78;6093884;19;20542;-76
2023/11/19 03:36:09;;;;;;;0.40;0.40;;;;;;;6.59;100.00;97822.25;6093261;19;20217;-76
2023/11/19 03:38:09;;;;;;;0.50;0.50;;;;;;;6.52;100.00;97813.88;6092472;19;20014;-76
2023/11/19 03:40:10;;;;;;;0.57;0.55;;;;;;;6.50;100.00;97813.44;6093264;19;20720;-76
2023/11/19 03:42:13;;;;;;;0.52;0.52;;;;;;;6.54;100.00;97822.56;6093291;19;20006;-76
2023/11/19 03:44:13;;;;;;;0.70;0.57;;;;;;;6.52;100.00;97813.09;6092826;19;20013;-76
2023/11/19 03:46:18;;;;;;;0.75;0.50;;;;;;;6.48;100.00;97821.28;6093500;19;20301;-76
2023/11/19 03:48:19;;;;;;;1.65;0.50;;;;;;;6.48;100.00;97805.59;6092037;19;20011;-76
2023/11/19 03:50:20;;;;;;;0.60;0.60;;;;;;;6.46;100.00;97793.38;6092391;19;20037;-76
2023/11/19 03:52:20;;;;;;;0.55;0.50;;;;;;;6.41;100.00;97805.47;6092831;19;20051;-76
2023/11/19 03:54:23;;;;;;;0.77;0.60;;;;;;;6.39;100.00;97802.28;6094479;19;20634;-76
2023/11/19 03:56:23;;;;;;;1.98;1.00;;;;;;;6.35;100.00;97795.94;6091838;19;20395;-76
2023/11/19 03:58:23;;;;;;;0.88;0.82;;;;;;;6.31;100.00;97780.56;6092930;19;20344;-76
2023/11/19 04:00:23;;;;;;;1.15;0.60;;;;;;;6.34;100.00;97782.56;6091420;19;20010;-76
2023/11/19 04:02:27;;;;;;;0.55;0.55;;;;;;;6.42;100.00;97784.25;6092513;19;20433;-76
2023/11/19 04:04:28;;;;;;;0.80;0.57;;;;;;;6.46;100.00;97782.38;6090378;19;20014;-77
2023/11/19 04:06:28;;;;;;;2.00;0.73;;;;;;;6.42;100.00;97789.75;6092148;19;20358;-76
2023/11/19 04:08:29;;;;;;;0.50;0.50;;;;;;;6.42;100.00;97798.78;6093641;19;20450;-76
2023/11/19 04:10:29;;;;;;;0.65;0.65;;;;;;;6.48;100.00;97805.59;6091208;19;20010;-76
2023/11/19 04:12:29;;;;;;;0.50;0.50;;;;;;;6.54;100.00;97797.84;6092116;19;20014;-76
2023/11/19 04:14:30;;;;;;;0.40;0.40;;;;;;;6.55;100.00;97793.13;6092119;19;20090;-76
2023/11/19 04:16:30;;;;;;;0.40;0.40;;;;;;;6.63;100.00;97790.13;6092104;19;20779;-76
2023/11/19 04:18:31;;;;;;;0.63;0.60;;;;;;;6.67;100.00;97796.44;6092525;19;20447;-77
2023/11/19 04:20:32;;;;;;;0.80;0.60;;;;;;;6.76;100.00;97794.25;6093040;19;20415;-76
2023/11/19 04:22:32;;;;;;;0.43;0.43;;;;;;;6.75;100.00;97792.66;6093444;19;20018;-76
2023/11/19 04:24:33;;;;;;;0.50;0.50;;;;;;;6.72;100.00;97795.38;6091060;19;20006;-76
2023/11/19 04:26:34;;;;;;;0.50;0.50;;;;;;;6.70;100.00;97789.41;6092044;19;20015;-76
2023/11/19 04:28:34;;;;;;;0.50;0.50;;;;;;;6.70;100.00;97794.91;6097456;19;20428;-76
2023/11/19 04:30:35;;;;;;;0.50;0.50;;;;;;;6.67;100.00;97795.66;6099694;19;20483;-76
2023/11/19 04:32:35;;;;;;;0.90;0.50;;;;;;;6.65;100.00;97804.28;6099059;19;20011;-77
2023/11/19 04:34:37;;;;;;;0.70;0.55;;;;;;;6.63;100.00;97800.31;6101248;19;20009;-77
2023/11/19 04:36:37;;;;;;;0.70;0.70;;;;;;;6.57;100.00;97799.84;6099059;19;20619;-76
2023/11/19 04:38:41;;;;;;;0.45;0.45;;;;;;;6.57;100.00;97807.28;6100990;19;20404;-76
2023/11/19 04:40:41;;;;;;;0.60;0.60;;;;;;;6.56;100.00;97787.25;6101304;19;20003;-76
2023/11/19 04:42:42;;;;;;;0.40;0.40;;;;;;;6.57;100.00;97785.31;6100941;19;20527;-77
2023/11/19 04:44:43;;;;;;;0.55;0.55;;;;;;;6.57;100.00;97780.59;6098644;19;20278;-77
2023/11/19 04:46:44;;;;;;;0.60;0.60;;;;;;;6.58;100.00;97789.63;6098837;19;20006;-76
2023/11/19 04:48:44;;;;;;;0.50;0.50;;;;;;;6.59;100.00;97797.50;6098439;19;20086;-76
2023/11/19 04:50:45;;;;;;;0.50;0.50;;;;;;;6.62;100.00;97784.97;6100096;19;20519;-76
2023/11/19 04:52:45;;;;;;;0.47;0.47;;;;;;;6.59;100.00;97780.22;6101474;19;20044;-77
2023/11/19 04:54:46;;;;;;;0.40;0.40;;;;;;;6.60;100.00;97781.81;6100717;19;20010;-76
2023/11/19 04:56:47;;;;;;;0.50;0.50;;;;;;;6.59;100.00;97789.25;6098317;19;20313;-76
2023/11/19 04:58:47;;;;;;;1.08;0.50;;;;;;;6.60;100.00;97785.34;6100596;19;20073;-76
2023/11/19 05:00:47;;;;;;;0.50;0.50;;;;;;;6.56;100.00;97764.47;6099191;19;20532;-76
2023/11/19 05:02:48;;;;;;;0.55;0.50;;;;;;;6.54;100.00;97764.84;6100013;19;19999;-76
2023/11/19 05:04:49;;;;;;;2.28;0.52;;;;;;;6.56;100.00;97754.28;6101167;19;20352;-76
2023/11/19 05:06:49;;;;;;;1.35;0.60;;;;;;;6.58;100.00;97748.41;6095670;19;20460;-76
2023/11/19 05:08:49;;;;;;;0.55;0.55;;;;;;;6.58;100.00;97743.69;6100162;19;20347;-76
2023/11/19 05:10:50;;;;;;;0.40;0.40;;;;;;;6.59;100.00;97731.53;6100132;19;20006;-76
2023/11/19 05:12:51;;;;;;;0.40;0.40;;;;;;;6.63;100.00;97737.91;6098643;19;20028;-76
2023/11/19 05:14:51;;;;;;;0.45;0.45;;;;;;;6.65;100.00;97737.53;6100172;19;20007;-76
2023/11/19 05:16:52;;;;;;;0.47;0.40;;;;;;;6.66;100.00;97730.84;6096672;19;20017;-76
2023/11/19 05:18:52;;;;;;;1.02;0.60;;;;;;;6.68;100.00;97731.28;6099048;19;20006;-76
2023/11/19 05:20:52;;;;;;;0.40;0.40;;;;;;;6.69;100.00;97749.34;6098114;19;20010;-76
2023/11/19 05:22:53;;;;;;;0.50;0.50;;;;;;;6.72;100.00;97748.63;6099109;19;20007;-76
2023/11/19 05:24:54;;;;;;;0.50;0.50;;;;;;;6.73;100.00;97759.25;6100635;19;20041;-76
2023/11/19 05:26:54;;;;;;;0.50;0.50;;;;;;;6.80;100.00;97755.81;6099198;19;20015;-77
2023/11/19 05:28:55;;;;;;;0.55;0.55;;;;;;;6.85;100.00;97765.69;6099742;19;20335;-76
2023/11/19 05:30:55;;;;;;;1.23;0.57;;;;;;;6.85;100.00;97774.72;6100384;19;20334;-76
2023/11/19 05:32:56;;;;;;;0.52;0.52;;;;;;;6.95;100.00;97778.78;6100061;19;20014;-76
2023/11/19 05:34:56;;;;;;;0.60;0.60;;;;;;;7.04;100.00;97785.63;6098966;19;20062;-76
2023/11/19 05:36:57;;;;;;;0.68;0.60;;;;;;;7.18;100.00;97778.72;6098773;19;20007;-76
2023/11/19 05:38:58;;;;;;;1.67;0.73;;;;;;;7.13;100.00;97777.09;6098827;19;20003;-76
2023/11/19 05:40:58;;;;;;;0.88;0.57;;;;;;;7.15;100.00;97779.47;6098345;19;20013;-76
2023/11/19 05:42:59;;;;;;;0.60;0.60;;;;;;;7.11;100.00;97778.63;6099408;19;20011;-76
2023/11/19 05:44:59;;;;;;;1.70;0.50;;;;;;;7.11;100.00;97786.88;6101220;19;20328;-76
2023/11/19 05:46:59;;;;;;;0.73;0.73;;;;;;;7.14;100.00;97786.16;6097998;19;20016;-77
2023/11/19 05:49:00;;;;;;;0.60;0.60;;;;;;;7.21;100.00;97769.75;6097375;19;20082;-76
2023/11/19 05:51:00;;;;;;;0.70;0.70;;;;;;;7.32;100.00;97773.41;6100035;19;20343;-76
2023/11/19 05:53:01;;;;;;;0.85;0.60;;;;;;;7.31;100.00;97774.59;6097014;19;20016;-76
2023/11/19 05:55:09;;;;;;;0.70;0.70;;;;;;;7.26;100.00;97767.44;6099222;19;20037;-76
2023/11/19 05:57:09;;;;;;;1.60;0.70;;;;;;;7.33;100.00;97769.50;6098038;19;20002;-76
2023/11/19 05:59:15;;;;;;;0.60;0.60;;;;;;;7.35;100.00;97769.13;6098975;19;20017;-76
2023/11/19 06:01:15;;;;;;;0.60;0.60;;;;;;;7.41;100.00;97767.63;6098465;19;20026;-76
2023/11/19 06:03:15;;;;;;;1.73;0.90;;;;;;;7.39;100.00;97758.97;6095783;19;20034;-76
2023/11/19 06:05:16;;;;;;;1.05;0.65;;;;;;;7.45;100.00;97765.72;6099260;19;20417;-76
2023/11/19 06:07:16;;;;;;;1.95;0.70;;;;;;;7.43;100.00;97773.56;6097002;19;20028;-76
2023/11/19 06:09:18;;;;;;;0.60;0.60;;;;;;;7.41;100.00;97784.94;6098793;19;20628;-76
2023/11/19 06:11:20;;;;;;;1.85;0.68;;;;;;;7.40;100.00;97763.31;6098902;19;20006;-76
2023/11/19 06:13:21;;;;;;;3.53;1.00;;;;;;;7.41;100.00;97770.38;6095541;19;20010;-76
2023/11/19 06:15:21;;;;;;;1.08;0.73;;;;;;;7.39;100.00;97767.22;6098891;19;20455;-76
2023/11/19 06:17:22;;;;;;;1.20;0.80;;;;;;;7.41;100.00;97760.16;6097252;19;20014;-76
2023/11/19 06:19:24;;;;;;;1.83;1.27;;;;;;;7.39;100.00;97768.00;6095814;19;20010;-76
2023/11/19 06:21:25;;;;;;;1.75;0.95;;;;;;;7.36;100.00;97773.44;6097789;19;20007;-77
2023/11/19 06:23:25;;;;;;;2.13;0.70;;;;;;;7.35;100.00;97780.13;6098802;19;20006;-76
2023/11/19 06:25:26;;;;;;;1.02;0.75;;;;;;;7.32;100.00;97767.91;6102865;19;20842;-76
2023/11/19 06:27:26;;;;;;;1.00;0.70;;;;;;;7.31;100.00;97780.88;6101831;19;20034;-76
2023/11/19 06:29:27;;;;;;;7.05;1.90;;;;;;;7.29;100.00;97772.22;6104011;19;19998;-76
2023/11/19 06:31:27;;;;;;;3.75;1.83;;;;;;;7.29;100.00;97772.22;6104758;19;20038;-76
2023/11/19 06:33:27;;;;;;;1.05;0.90;;;;;;;7.25;100.00;97768.63;6103392;19;19999;-76
2023/11/19 06:35:35;;;;;;;1.55;0.73;;;;;;;7.24;100.00;97766.25;6104681;19;20002;-76
2023/11/19 06:37:38;;;;;;;1.67;0.95;;;;;;;7.30;100.00;97764.75;6102691;19;20002;-76
2023/11/19 06:39:38;;;;;;;1.42;1.08;;;;;;;7.31;100.00;97760.84;6103812;19;20006;-76
2023/11/19 06:41:39;;;;;;;2.80;1.08;;;;;;;7.32;100.00;97771.47;6103398;19;20007;-76
2023/11/19 06:43:39;;;;;;;4.10;1.33;;;;;;;7.32;100.00;97768.72;6103947;19;20033;-76
2023/11/19 06:45:39;;;;;;;1.75;1.23;;;;;;;7.36;100.00;97770.69;6103802;19;20475;-76
2023/11/19 06:47:40;;;;;;;1.13;1.00;;;;;;;7.41;100.00;97767.63;6101923;19;20006;-76
2023/11/19 06:49:44;;;;;;;3.33;0.90;;;;;;;7.46;100.00;97765.34;6104349;19;20238;-76
2023/11/19 06:51:46;;;;;;;1.30;0.98;;;;;;;7.51;100.00;97778.78;6102295;19;20070;-76
2023/11/19 06:53:46;;;;;;;2.88;1.10;;;;;;;7.60;100.00;97765.50;6103536;19;20006;-77
2023/11/19 06:55:46;;;;;;;3.22;1.15;;;;;;;7.69;100.00;97767.97;6104261;19;20851;-76
2023/11/19 06:57:47;;;;;;;3.17;0.90;;;;;;;7.77;100.00;97757.81;6099585;19;20010;-76
2023/11/19 06:59:47;;;;;;;3.15;1.90;;;;;;;7.87;100.00;97749.69;6103109;19;20010;-76
2023/11/19 07:01:47;;;;;;;3.13;1.30;;;;;;;7.93;100.00;97747.38;6101071;19;20105;-76
2023/11/19 07:03:48;;;;;;;5.53;1.20;;;;;;;7.99;100.00;97750.59;6099139;19;20652;-76
2023/11/19 07:05:48;;;;;;;2.67;1.10;;;;;;;8.02;100.00;97761.63;6096595;19;20006;-76
2023/11/19 07:07:48;;;;;;;3.17;1.15;;;;;;;8.02;100.00;97755.31;6098690;19;20255;-76
2023/11/19 07:09:50;;;;;;;3.50;1.23;;;;;;;8.09;100.00;97761.69;6101013;19;20014;-76
2023/11/19 07:11:53;;;;;;;2.50;1.35;;;;;;;8.16;100.00;97761.78;6101139;19;20018;-76
2023/11/19 07:13:54;;;;;;;2.70;1.10;;;;;;;8.25;100.00;97757.91;6102883;19;20110;-76
2023/11/19 07:15:56;;;;;;;2.35;1.23;;;;;;;8.37;100.00;97766.72;6103335;19;20022;-76
2023/11/19 07:17:58;;;;;;;3.60;1.63;;;;;;;8.33;100.00;97757.59;6102275;19;20333;-76
2023/11/19 07:19:59;;;;;;;4.13;1.60;;;;;;;8.37;100.00;97752.94;6103026;19;20007;-76
2023/11/19 07:22:00;;;;;;;6.80;1.45;;;;;;;8.41;100.00;97755.72;6100103;19;20007;-76
2023/11/19 07:24:00;;;;;;;2.22;1.20;;;;;;;8.48;100.00;97738.47;6103726;19;20013;-76
2023/11/19 07:26:01;;;;;;;3.72;1.30;;;;;;;8.48;100.00;97741.22;6103674;19;20106;-76
2023/11/19 07:28:04;;;;;;;1.48;0.98;;;;;;;8.45;100.00;97742.78;6090453;19;20061;-76
2023/11/19 07:30:07;;;;;;;3.97;1.20;;;;;;;8.42;100.00;97746.28;6101628;19;20021;-76
2023/11/19 07:32:08;;;;;;;3.42;1.17;;;;;;;8.37;100.00;97747.44;6099705;19;20793;-76
2023/11/19 07:34:09;;;;;;;1.75;1.00;;;;;;;8.39;100.00;97738.78;6100160;19;20002;-76
2023/11/19 07:36:10;;;;;;;1.55;0.93;;;;;;;8.35;100.00;97754.47;6101783;19;20027;-76
2023/11/19 07:38:10;;;;;;;2.35;1.05;;;;;;;8.28;100.00;97749.69;6101335;19;20025;-76
2023/11/19 07:40:11;;;;;;;3.55;1.20;;;;;;;8.32;100.00;97753.25;6102438;19;20355;-76
2023/11/19 07:42:11;;;;;;;2.30;1.20;;;;;;;8.40;100.00;97757.69;6101692;19;19998;-76
2023/11/19 07:44:12;;;;;;;2.90;1.00;;;;;;;8.53;100.00;97755.44;6099874;19;20469;-76
2023/11/19 07:46:13;;;;;;;3.42;1.23;;;;;;;8.61;100.00;97759.06;6099352;19;20741;-76
2023/11/19 07:48:15;;;;;;;4.78;1.20;;;;;;;8.72;100.00;97757.16;6100254;19;20348;-76
2023/11/19 07:50:16;;;;;;;3.45;1.40;;;;;;;8.87;100.00;97758.06;6102598;19;20017;-76
2023/11/19 07:52:17;;;;;;;3.33;1.02;;;;;;;8.90;100.00;97768.31;6102090;19;20014;-76
2023/11/19 07:54:17;;;;;;;2.70;1.05;;;;;;;9.04;100.00;97756.56;6101695;19;19999;-76
2023/11/19 07:56:17;;;;;;;1.42;1.02;;;;;;;9.19;100.00;97769.28;6102136;19;20006;-76
2023/11/19 07:58:18;;;;;;;1.63;0.98;;;;;;;9.27;100.00;97759.88;6100526;19;20120;-76
2023/11/19 08:00:19;;;;;;;1.23;0.80;;;;;;;9.27;100.00;97774.47;6100460;19;20726;-76
2023/11/19 08:02:20;;;;;;;2.92;0.90;;;;;;;9.32;100.00;97778.81;6100457;19;20079;-76
2023/11/19 08:04:20;;;;;;;1.00;0.80;;;;;;;9.41;100.00;97772.94;6099942;19;20002;-76
2023/11/19 08:06:20;;;;;;;4.45;0.88;;;;;;;9.34;100.00;97787.47;6099604;19;20334;-76
2023/11/19 08:08:21;;;;;;;3.72;0.95;;;;;;;9.31;100.00;97787.47;6098655;19;20019;-76
2023/11/19 08:10:22;;;;;;;1.85;0.70;;;;;;;9.20;100.00;97779.94;6101795;19;20463;-76
2023/11/19 08:12:22;;;;;;;2.20;0.70;;;;;;;9.12;100.00;97774.75;6100696;19;20367;-76
2023/11/19 08:14:23;;;;;;;1.15;0.50;;;;;;;9.14;100.00;97772.41;6097837;19;20031;-76
2023/11/19 08:16:24;;;;;;;0.93;0.70;;;;;;;9.18;100.00;97759.41;6099460;19;20320;-76
2023/11/19 08:18:24;;;;;;;1.73;0.80;;;;;;;9.18;100.00;97751.91;6099704;19;20107;-76
2023/11/19 08:20:25;;;;;;;0.82;0.80;;;;;;;9.28;100.00;97756.72;6101598;19;20333;-76
2023/11/19 08:22:25;;;;;;;2.85;1.10;;;;;;;9.33;100.00;97746.47;6100784;19;20085;-76
2023/11/19 08:24:25;;;;;;;3.72;1.33;;;;;;;9.35;100.00;97744.91;6101312;19;20014;-77
2023/11/19 08:26:26;;;;;;;4.03;0.75;;;;;;;9.37;100.00;97744.53;6100769;19;20029;-76
2023/11/19 08:28:27;;;;;;;3.30;1.05;;;;;;;9.49;100.00;97728.38;6091428;19;20010;-76
2023/11/19 08:30:27;;;;;;;4.82;1.25;;;;;;;9.46;100.00;97736.66;6092445;19;20014;-76
2023/11/19 08:32:28;;;;;;;2.28;1.42;;;;;;;9.47;100.00;97741.81;6091482;19;20033;-76
2023/11/19 08:34:28;;;;;;;4.88;1.50;;;;;;;9.49;100.00;97727.59;6086838;19;20010;-76
2023/11/19 08:36:28;;;;;;;3.58;1.85;;;;;;;9.44;100.00;97739.84;6082621;19;20014;-76
2023/11/19 08:38:29;;;;;;;4.45;1.40;;;;;;;9.47;100.00;97735.50;6085988;19;20002;-76
2023/11/19 08:40:29;;;;;;;5.50;1.38;;;;;;;9.63;100.00;97738.72;6086946;19;20029;-76
2023/11/19 08:42:30;;;;;;;4.07;1.10;;;;;;;9.62;100.00;97731.59;6091298;19;20011;-76
2023/11/19 08:44:30;;;;;;;4.82;1.35;;;;;;;9.64;100.00;97734.75;6089563;19;20022;-76
2023/11/19 08:46:31;;;;;;;4.78;1.40;;;;;;;9.67;100.00;97739.50;6088048;19;20003;-76
2023/11/19 08:48:31;;;;;;;4.13;1.80;;;;;;;9.72;100.00;97736.38;6088840;19;20025;-76
2023/11/19 08:50:32;;;;;;;6.85;2.53;;;;;;;9.76;100.00;97737.19;6090404;19;20432;-76
2023/11/19 08:52:32;;;;;;;3.00;1.35;;;;;;;9.73;100.00;97734.38;6089829;19;20010;-77
2023/11/19 08:54:33;;;;;;;5.57;2.55;;;;;;;9.79;100.00;97735.59;6088530;19;20006;-76
2023/11/19 08:56:35;;;;;;;2.65;1.60;;;;;;;9.83;100.00;97739.16;6088950;19;20033;-76
2023/11/19 08:58:35;;;;;;;8.45;1.73;;;;;;;9.86;100.00;97746.69;6091488;19;20314;-76
2023/11/19 09:00:35;;;;;;;11.40;2.53;;;;;;;9.88;100.00;97747.06;6089249;19;20069;-76
2023/11/19 09:02:37;;;;;;;5.65;1.95;;;;;;;9.85;100.00;97747.84;6090204;19;20331;-76
2023/11/19 09:04:37;;;;;;;3.80;1.80;;;;;;;9.90;100.00;97766.00;6088033;19;20478;-76
2023/11/19 09:06:37;;;;;;;4.43;1.65;;;;;;;9.90;100.00;97769.56;6088655;19;20007;-76
2023/11/19 09:08:38;;;;;;;11.55;1.67;;;;;;;9.95;100.00;97766.44;6090151;19;20392;-76
2023/11/19 09:10:38;;;;;;;4.75;1.48;;;;;;;10.05;100.00;97773.16;6089383;19;20010;-76
2023/11/19 09:12:38;;;;;;;5.18;2.30;;;;;;;10.00;100.00;97785.38;6089749;19;20011;-76
2023/11/19 09:14:39;;;;;;;12.93;3.25;;;;;;;10.10;100.00;97773.56;6089787;19;20011;-76
2023/11/19 09:16:39;;;;;;;5.32;2.20;;;;;;;10.24;100.00;97794.94;6088320;19;20286;-76
2023/11/19 09:18:39;;;;;;;5.95;1.90;;;;;;;10.23;100.00;97800.88;6090289;19;20074;-76
2023/11/19 09:20:40;;;;;;;7.15;2.10;;;;;;;10.25;100.00;97821.41;6087541;19;20003;-76
2023/11/19 09:22:40;;;;;;;6.78;2.00;;;;;;;10.29;100.00;97816.69;6088830;19;20497;-76
2023/11/19 09:24:41;;;;;;;7.20;2.30;;;;;;;10.31;100.00;97819.06;6090247;19;20314;-76
2023/11/19 09:26:41;;;;;;;6.20;2.03;;;;;;;10.39;100.00;97826.19;6087833;19;20659;-76
2023/11/19 09:28:41;;;;;;;4.30;2.00;;;;;;;10.43;100.00;97818.69;6095355;19;20030;-76
2023/11/19 09:30:42;;;;;;;5.05;1.48;;;;;;;10.44;100.00;97814.75;6098865;19;20770;-76